Time;durP1;ratioP1;P1;durP2;ratioP2;P2;SDS_P1;SDS_P2;PMS_P1;PMS_P2;Temp;Humidity;BMP_temperature;BMP_pressure;BME280_temperature;BME280_humidity;BME280_pressure;Samples;Min_cycle;Max_cycle;Signal;HPM_P1;HPM_P2
2022/12/17 13:09:04;;;;;;;13.55;11.30;;;;;;;;;;10070289;28;20537;-63
2022/12/17 13:14:00;;;;;;;11.32;10.25;;;;;;;;;;10070359;28;20056;-64
2022/12/17 13:19:02;;;;;;;12.45;11.18;;;;;;;;;;10070769;28;20076;-65
2022/12/17 13:23:54;;;;;;;10.77;9.75;;;;;;;;;;10070538;28;20076;-65
2022/12/17 13:29:17;;;;;;;12.18;10.85;;;;;;;;;;10069463;28;20059;-65
2022/12/17 13:34:22;;;;;;;12.25;11.10;;;;;;;;;;10064423;28;20050;-65
2022/12/17 13:39:46;;;;;;;12.63;10.13;;;;;;;;;;10066359;28;20041;-65
2022/12/17 13:44:43;;;;;;;12.32;11.10;;;;;;;;;;10080210;28;20080;-65
2022/12/17 13:49:36;;;;;;;12.70;11.40;;;;;;;;;;10066939;28;20081;-65
2022/12/17 13:54:29;;;;;;;14.82;12.73;;;;;;;;;;10065432;28;20053;-65
2022/12/17 13:59:23;;;;;;;17.52;15.60;;;;;;;;;;10061319;28;20467;-65
2022/12/17 14:04:21;;;;;;;17.42;13.07;;;;;;;;;;10062764;28;20045;-65
2022/12/17 14:09:18;;;;;;;12.77;11.55;;;;;;;;;;10066003;28;20077;-64
2022/12/17 14:14:26;;;;;;;17.35;12.65;;;;;;;;;;10065132;28;20152;-64
2022/12/17 14:19:20;;;;;;;13.30;11.95;;;;;;;;;;10067448;28;20057;-64
2022/12/17 14:24:13;;;;;;;16.23;14.63;;;;;;;;;;10068968;28;20046;-64
2022/12/17 14:29:12;;;;;;;15.30;13.70;;;;;;;;;;10065678;28;20057;-67
2022/12/17 14:34:10;;;;;;;15.85;14.38;;;;;;;;;;10078628;28;20041;-69
2022/12/17 14:39:24;;;;;;;14.65;13.13;;;;;;;;;;10072107;28;20080;-68
2022/12/17 14:44:26;;;;;;;16.42;13.65;;;;;;;;;;10068184;28;20055;-67
2022/12/17 14:49:21;;;;;;;11.90;10.77;;;;;;;;;;10065288;28;20076;-67
2022/12/17 14:54:24;;;;;;;13.20;11.75;;;;;;;;;;10081630;28;20405;-67
2022/12/17 14:59:30;;;;;;;16.02;13.02;;;;;;;;;;10077035;28;20462;-67
2022/12/17 15:04:24;;;;;;;12.70;11.50;;;;;;;;;;10075023;28;20126;-67
2022/12/17 15:09:17;;;;;;;13.15;11.90;;;;;;;;;;10072501;28;20049;-67
2022/12/17 15:14:11;;;;;;;12.30;11.15;;;;;;;;;;10071937;28;20076;-67
2022/12/17 15:19:04;;;;;;;16.02;13.02;;;;;;;;;;10074064;28;20053;-66
2022/12/17 15:23:57;;;;;;;14.90;13.43;;;;;;;;;;10067507;28;20136;-65
2022/12/17 15:28:51;;;;;;;16.83;13.73;;;;;;;;;;10065525;28;20061;-66
2022/12/17 15:33:45;;;;;;;19.48;17.05;;;;;;;;;;10064837;28;20049;-65
2022/12/17 15:38:39;;;;;;;18.52;16.13;;;;;;;;;;10065525;28;20049;-67
2022/12/17 15:43:32;;;;;;;18.30;16.40;;;;;;;;;;10066268;28;20049;-66
2022/12/17 15:48:26;;;;;;;15.52;14.00;;;;;;;;;;10065425;28;20080;-67
2022/12/17 15:53:20;;;;;;;15.77;14.13;;;;;;;;;;10066352;28;20057;-69
2022/12/17 15:58:15;;;;;;;14.55;13.02;;;;;;;;;;10066628;28;20140;-68
2022/12/17 16:03:09;;;;;;;15.75;14.05;;;;;;;;;;10072336;28;20133;-69
2022/12/17 16:08:03;;;;;;;14.23;12.82;;;;;;;;;;10070397;28;20061;-67
2022/12/17 16:12:56;;;;;;;17.10;15.30;;;;;;;;;;10069708;28;20044;-66
2022/12/17 16:17:51;;;;;;;19.60;17.60;;;;;;;;;;10070974;28;20049;-67
2022/12/17 16:22:46;;;;;;;21.35;18.45;;;;;;;;;;10059513;28;20463;-69
2022/12/17 16:27:42;;;;;;;20.13;18.20;;;;;;;;;;10072035;28;20049;-69
2022/12/17 16:32:35;;;;;;;19.27;17.33;;;;;;;;;;10072457;28;20077;-69
2022/12/17 16:37:29;;;;;;;22.00;19.58;;;;;;;;;;10080792;28;20087;-68
2022/12/17 16:42:23;;;;;;;24.30;21.70;;;;;;;;;;10084174;28;20092;-69
2022/12/17 16:47:18;;;;;;;28.98;22.65;;;;;;;;;;10084202;28;20049;-69
2022/12/17 16:52:11;;;;;;;25.85;23.25;;;;;;;;;;10075598;28;20112;-69
2022/12/17 16:57:05;;;;;;;26.17;23.27;;;;;;;;;;10075490;28;20061;-68
2022/12/17 17:01:59;;;;;;;28.17;22.55;;;;;;;;;;10088659;28;20127;-69
2022/12/17 17:06:54;;;;;;;27.55;24.63;;;;;;;;;;10083823;28;20045;-70
2022/12/17 17:11:46;;;;;;;38.10;27.50;;;;;;;;;;10085255;28;20096;-69
2022/12/17 17:16:43;;;;;;;41.08;31.20;;;;;;;;;;10074282;28;20053;-70
2022/12/17 17:21:41;;;;;;;34.50;28.08;;;;;;;;;;10076287;28;20104;-70
2022/12/17 17:26:34;;;;;;;45.45;33.53;;;;;;;;;;10079946;28;20485;-71
2022/12/17 17:31:27;;;;;;;32.25;28.45;;;;;;;;;;10078547;28;20219;-70
2022/12/17 17:36:40;;;;;;;30.75;27.40;;;;;;;;;;10074777;28;20084;-74
2022/12/17 17:41:34;;;;;;;32.13;27.23;;;;;;;;;;10073646;28;20046;-70
2022/12/17 17:46:29;;;;;;;30.42;25.25;;;;;;;;;;10070693;28;20045;-69
2022/12/17 17:51:25;;;;;;;29.00;25.90;;;;;;;;;;10069328;28;20053;-70
2022/12/17 17:56:39;;;;;;;30.13;26.73;;;;;;;;;;10068369;28;20051;-70
2022/12/17 18:01:43;;;;;;;29.30;26.15;;;;;;;;;;10069132;28;20053;-69
2022/12/17 18:06:37;;;;;;;30.15;25.75;;;;;;;;;;10067760;28;20041;-68
2022/12/17 18:11:32;;;;;;;30.67;26.05;;;;;;;;;;10068731;28;20556;-68
2022/12/17 18:16:38;;;;;;;28.20;24.90;;;;;;;;;;10067370;28;20059;-70
2022/12/17 18:21:32;;;;;;;31.35;24.38;;;;;;;;;;10065249;28;20124;-69
2022/12/17 18:26:28;;;;;;;31.25;25.63;;;;;;;;;;10067929;28;20048;-67
2022/12/17 18:31:25;;;;;;;29.35;26.25;;;;;;;;;;10067756;28;20053;-68
2022/12/17 18:36:23;;;;;;;31.13;27.58;;;;;;;;;;10069468;28;20052;-66
2022/12/17 18:46:30;;;;;;;30.90;26.25;;;;;;;;;;10064929;28;20131;-68
2022/12/17 18:51:25;;;;;;;33.63;26.35;;;;;;;;;;10064398;28;20083;-68
2022/12/17 18:56:19;;;;;;;32.83;27.98;;;;;;;;;;10062803;28;20071;-68
2022/12/17 19:01:35;;;;;;;33.28;27.58;;;;;;;;;;10065163;28;20514;-68
2022/12/17 19:06:28;;;;;;;38.83;30.33;;;;;;;;;;10067203;28;20037;-68
2022/12/17 19:11:21;;;;;;;45.42;34.95;;;;;;;;;;10067231;28;20076;-68
2022/12/17 19:16:16;;;;;;;45.42;33.40;;;;;;;;;;10067580;28;20061;-67
2022/12/17 19:21:15;;;;;;;46.00;36.40;;;;;;;;;;10067023;28;20064;-68
2022/12/17 19:26:26;;;;;;;44.45;35.47;;;;;;;;;;10067394;28;20052;-69
2022/12/17 19:31:21;;;;;;;52.80;39.10;;;;;;;;;;10066360;28;20077;-68
2022/12/17 19:36:16;;;;;;;58.67;43.72;;;;;;;;;;10066351;28;20049;-68
2022/12/17 19:41:14;;;;;;;44.55;35.63;;;;;;;;;;10066436;28;20399;-68
2022/12/17 19:46:15;;;;;;;43.78;32.88;;;;;;;;;;10066346;28;20049;-67
2022/12/17 19:51:09;;;;;;;39.60;30.77;;;;;;;;;;10066356;28;20049;-69
2022/12/17 19:56:24;;;;;;;41.13;31.73;;;;;;;;;;10065814;28;20049;-68
2022/12/17 20:01:26;;;;;;;38.50;29.10;;;;;;;;;;10055807;28;20061;-68
2022/12/17 20:06:20;;;;;;;38.05;31.63;;;;;;;;;;10064045;28;20462;-68
2022/12/17 20:11:32;;;;;;;48.90;35.47;;;;;;;;;;10066602;28;20046;-69
2022/12/17 20:16:26;;;;;;;50.05;32.53;;;;;;;;;;10066726;28;20095;-69
2022/12/17 20:21:20;;;;;;;41.40;31.42;;;;;;;;;;10065621;28;20080;-68
2022/12/17 20:26:15;;;;;;;43.50;31.65;;;;;;;;;;10065521;28;20140;-69
2022/12/17 20:31:08;;;;;;;48.80;32.55;;;;;;;;;;10065786;28;20134;-68
2022/12/17 20:36:05;;;;;;;44.17;33.38;;;;;;;;;;10065490;28;20433;-68
2022/12/17 20:40:58;;;;;;;43.00;34.75;;;;;;;;;;10065912;28;20509;-69
2022/12/17 20:45:54;;;;;;;44.13;35.05;;;;;;;;;;10068122;28;20053;-68
2022/12/17 20:50:47;;;;;;;42.10;32.80;;;;;;;;;;10073049;28;20494;-68
2022/12/17 20:55:41;;;;;;;46.28;33.83;;;;;;;;;;10072175;28;20137;-68
2022/12/17 21:00:35;;;;;;;43.20;30.33;;;;;;;;;;10071484;28;20049;-68
2022/12/17 21:05:28;;;;;;;37.15;31.05;;;;;;;;;;10071945;28;20457;-68
2022/12/17 21:10:22;;;;;;;37.70;28.40;;;;;;;;;;10071680;28;20058;-68
2022/12/17 21:15:17;;;;;;;34.83;28.70;;;;;;;;;;10071575;28;20050;-68
2022/12/17 21:20:10;;;;;;;40.17;31.15;;;;;;;;;;10071298;28;20502;-68
2022/12/17 21:25:05;;;;;;;39.05;30.92;;;;;;;;;;10070832;28;20140;-68
2022/12/17 21:29:59;;;;;;;33.75;28.77;;;;;;;;;;10071605;28;20061;-68
2022/12/17 21:34:58;;;;;;;39.63;30.92;;;;;;;;;;10071220;28;20041;-68
2022/12/17 21:39:51;;;;;;;41.10;31.20;;;;;;;;;;10070470;28;20139;-68
2022/12/17 21:44:51;;;;;;;37.03;29.25;;;;;;;;;;10070466;28;20045;-68
2022/12/17 21:49:45;;;;;;;36.97;28.40;;;;;;;;;;10070429;28;20046;-68
2022/12/17 21:54:39;;;;;;;33.90;27.75;;;;;;;;;;10069717;28;20091;-66
2022/12/17 21:59:32;;;;;;;41.42;27.25;;;;;;;;;;10068306;28;20131;-66
2022/12/17 22:04:25;;;;;;;43.38;30.88;;;;;;;;;;10069607;28;20053;-66
2022/12/17 22:09:20;;;;;;;39.10;28.67;;;;;;;;;;10069610;28;20399;-67
2022/12/17 22:14:33;;;;;;;35.83;25.55;;;;;;;;;;10070319;28;20068;-68
2022/12/17 22:19:27;;;;;;;35.88;25.00;;;;;;;;;;10069069;28;20116;-67
2022/12/17 22:24:23;;;;;;;35.03;23.38;;;;;;;;;;10068495;28;20061;-65
2022/12/17 22:34:33;;;;;;;18.77;14.10;;;;;;;;;;10063104;28;20072;-68
2022/12/17 22:39:47;;;;;;;19.15;12.80;;;;;;;;;;10067457;28;20107;-68
2022/12/17 22:45:05;;;;;;;13.25;11.85;;;;;;;;;;10065623;28;20068;-67
2022/12/17 22:50:03;;;;;;;15.93;12.45;;;;;;;;;;10065912;28;20049;-67
2022/12/17 22:54:57;;;;;;;16.48;11.35;;;;;;;;;;10063847;28;20103;-68
2022/12/17 22:59:50;;;;;;;12.10;10.43;;;;;;;;;;10066254;28;20045;-67
2022/12/17 23:04:44;;;;;;;16.80;11.02;;;;;;;;;;10065349;28;20053;-68
2022/12/17 23:09:41;;;;;;;14.25;9.60;;;;;;;;;;10062080;28;20494;-67
2022/12/17 23:14:35;;;;;;;12.98;9.77;;;;;;;;;;10063299;28;20053;-67
2022/12/17 23:19:28;;;;;;;12.15;8.52;;;;;;;;;;10062957;28;20143;-67
2022/12/17 23:24:21;;;;;;;11.45;8.15;;;;;;;;;;10067043;28;20057;-68
2022/12/17 23:29:15;;;;;;;7.35;6.60;;;;;;;;;;10059695;28;20707;-67
2022/12/17 23:34:12;;;;;;;7.43;6.65;;;;;;;;;;10066936;28;20053;-68
2022/12/17 23:39:05;;;;;;;9.25;7.15;;;;;;;;;;10065185;28;20095;-67
2022/12/17 23:43:59;;;;;;;8.77;7.82;;;;;;;;;;10058583;28;20470;-68
2022/12/17 23:48:54;;;;;;;9.68;7.68;;;;;;;;;;10062271;28;20044;-67
2022/12/17 23:53:46;;;;;;;7.95;6.75;;;;;;;;;;10065347;28;20102;-67
2022/12/17 23:58:41;;;;;;;6.50;5.57;;;;;;;;;;10066442;28;20045;-68
